Time;durP1;ratioP1;P1;durP2;ratioP2;P2;SDS_P1;SDS_P2;PMS_P1;PMS_P2;Temp;Humidity;BMP_temperature;BMP_pressure;BME280_temperature;BME280_humidity;BME280_pressure;Samples;Min_cycle;Max_cycle;Signal;HPM_P1;HPM_P2
2023/02/04 00:00:42;;;;;;;17.02;4.18;;;;;;;7.61;57.25;101265.72;10417980;28;20490;-66
2023/02/04 00:05:43;;;;;;;19.55;4.10;;;;;;;7.68;57.38;101270.69;10411209;28;20037;-66
2023/02/04 00:10:46;;;;;;;15.45;3.65;;;;;;;7.65;57.28;101282.97;10418044;28;20045;-66
2023/02/04 00:15:47;;;;;;;18.00;4.05;;;;;;;7.61;57.67;101276.94;10417802;28;20409;-66
2023/02/04 00:20:49;;;;;;;21.15;4.28;;;;;;;7.63;57.58;101277.75;10419436;28;20053;-66
2023/02/04 00:25:51;;;;;;;24.88;4.60;;;;;;;7.66;57.80;101282.91;10419333;28;20049;-66
2023/02/04 00:30:52;;;;;;;20.50;4.32;;;;;;;7.55;57.54;101281.50;10416506;28;20045;-66
2023/02/04 00:35:55;;;;;;;20.75;4.93;;;;;;;7.44;57.59;101280.91;10418649;28;20049;-66
2023/02/04 00:40:56;;;;;;;18.33;4.50;;;;;;;7.28;57.81;101290.84;10420378;28;20733;-66
2023/02/04 00:45:58;;;;;;;21.98;5.05;;;;;;;7.20;57.75;101298.81;10417043;28;20048;-66
2023/02/04 00:51:00;;;;;;;20.45;4.82;;;;;;;7.20;57.78;101306.63;10419986;28;20076;-66
2023/02/04 00:56:02;;;;;;;23.42;5.40;;;;;;;7.08;57.71;101303.50;10417891;28;20379;-66
2023/02/04 01:01:03;;;;;;;22.45;5.15;;;;;;;7.07;57.85;101309.56;10413972;28;20060;-66
2023/02/04 01:06:05;;;;;;;18.23;4.43;;;;;;;7.09;57.69;101307.78;10416835;28;20049;-66
2023/02/04 01:11:07;;;;;;;18.67;5.07;;;;;;;7.08;57.69;101329.50;10417707;28;20049;-66
2023/02/04 01:16:09;;;;;;;23.33;5.22;;;;;;;6.96;57.75;101325.41;10415171;28;20041;-66
2023/02/04 01:21:11;;;;;;;27.58;5.10;;;;;;;6.83;57.90;101337.00;10415986;28;20060;-66
2023/02/04 01:26:12;;;;;;;24.65;5.13;;;;;;;6.82;57.52;101337.88;10417143;28;20056;-66
2023/02/04 01:31:14;;;;;;;25.08;4.97;;;;;;;6.91;57.72;101336.81;10413395;28;20064;-66
2023/02/04 01:36:20;;;;;;;19.48;4.93;;;;;;;6.88;57.82;101355.94;10415535;28;20056;-66
2023/02/04 01:41:22;;;;;;;21.80;4.60;;;;;;;6.89;57.55;101351.59;10415058;28;20119;-66
2023/02/04 01:46:23;;;;;;;23.48;5.05;;;;;;;6.93;57.85;101366.25;10411676;28;20045;-66
2023/02/04 01:51:28;;;;;;;26.15;4.88;;;;;;;6.96;57.81;101351.41;10384636;28;20051;-66
2023/02/04 01:56:30;;;;;;;23.33;4.75;;;;;;;7.02;57.31;101345.25;10416768;28;21936;-66
2023/02/04 02:01:48;;;;;;;28.55;4.97;;;;;;;6.98;56.83;101357.44;10409172;28;20061;-66
2023/02/04 02:06:57;;;;;;;22.60;4.97;;;;;;;7.10;56.51;101366.75;10413167;28;20041;-66
2023/02/04 02:12:01;;;;;;;21.65;5.25;;;;;;;7.02;57.37;101389.47;10406991;28;20041;-66
2023/02/04 02:17:03;;;;;;;22.63;4.75;;;;;;;7.01;57.05;101373.00;10413396;28;20396;-66
2023/02/04 02:22:12;;;;;;;21.48;4.93;;;;;;;7.09;56.79;101367.63;10416104;28;20485;-65
2023/02/04 02:27:13;;;;;;;19.83;5.05;;;;;;;7.10;56.98;101382.34;10428406;28;20292;-66
2023/02/04 02:32:16;;;;;;;20.30;4.68;;;;;;;7.02;57.32;101389.47;10428878;28;20072;-66
2023/02/04 02:37:17;;;;;;;23.40;5.47;;;;;;;7.02;57.28;101403.31;10430747;28;20045;-66
2023/02/04 02:42:19;;;;;;;20.30;5.00;;;;;;;6.99;57.34;101392.97;10429559;28;20374;-66
2023/02/04 02:47:22;;;;;;;22.08;4.97;;;;;;;6.92;57.31;101391.38;10427484;28;20238;-66
2023/02/04 02:52:24;;;;;;;24.88;4.90;;;;;;;6.96;57.24;101392.16;10424550;28;20734;-66
2023/02/04 02:57:25;;;;;;;23.48;5.30;;;;;;;6.96;57.09;101400.84;10430773;28;20056;-66
2023/02/04 03:02:27;;;;;;;23.40;5.05;;;;;;;6.98;57.22;101416.41;10426046;28;20052;-66
2023/02/04 03:07:29;;;;;;;24.35;4.78;;;;;;;7.01;57.25;101406.81;10436361;28;20098;-66
2023/02/04 03:12:30;;;;;;;23.08;4.88;;;;;;;7.01;57.38;101416.34;10433002;28;20083;-66
2023/02/04 03:17:33;;;;;;;30.85;5.95;;;;;;;6.97;57.40;101407.78;10437212;28;20339;-66
2023/02/04 03:22:36;;;;;;;25.25;5.38;;;;;;;6.88;57.52;101409.69;10428026;28;20041;-66
2023/02/04 03:27:38;;;;;;;24.73;5.05;;;;;;;6.80;58.01;101424.59;10436055;28;20051;-66
2023/02/04 03:32:40;;;;;;;28.38;5.38;;;;;;;6.80;57.67;101435.00;10433231;28;20274;-66
2023/02/04 03:37:42;;;;;;;28.63;5.40;;;;;;;6.99;57.25;101433.75;10427188;28;20045;-66
2023/02/04 03:42:44;;;;;;;24.80;5.57;;;;;;;6.90;57.30;101439.13;10423797;28;20041;-66
2023/02/04 03:47:46;;;;;;;20.55;4.93;;;;;;;6.90;57.38;101452.97;10424613;28;20045;-66
2023/02/04 03:52:49;;;;;;;30.27;5.72;;;;;;;6.96;57.30;101463.25;10429552;28;20560;-66
2023/02/04 03:57:51;;;;;;;25.85;5.05;;;;;;;6.95;57.23;101468.50;10424693;28;20049;-66
2023/02/04 04:02:53;;;;;;;29.35;5.22;;;;;;;6.95;57.34;101473.69;10424416;28;20049;-66
2023/02/04 04:07:54;;;;;;;33.92;6.18;;;;;;;6.94;57.28;101480.66;10422620;28;20542;-66
2023/02/04 04:12:56;;;;;;;29.10;5.95;;;;;;;6.86;57.48;101487.75;10420965;28;20037;-66
2023/02/04 04:17:58;;;;;;;24.73;4.80;;;;;;;6.91;57.32;101482.47;10420026;28;20055;-66
2023/02/04 04:22:59;;;;;;;28.00;5.88;;;;;;;6.83;57.52;101490.41;10418755;28;20051;-66
2023/02/04 04:28:01;;;;;;;28.88;5.57;;;;;;;6.67;58.01;101480.34;10420224;28;20064;-66
2023/02/04 04:33:03;;;;;;;25.35;5.60;;;;;;;6.75;57.89;101487.13;10417068;28;20485;-66
2023/02/04 04:38:04;;;;;;;28.80;5.05;;;;;;;6.78;57.93;101487.03;10416308;28;20045;-66
2023/02/04 04:43:06;;;;;;;27.85;6.50;;;;;;;6.76;58.01;101487.94;10415965;28;21800;-66
2023/02/04 04:48:08;;;;;;;30.58;5.93;;;;;;;6.62;58.19;101497.75;10419209;28;20052;-66
2023/02/04 04:53:10;;;;;;;27.70;5.28;;;;;;;6.64;58.37;101506.38;10416037;28;20328;-66
2023/02/04 04:58:11;;;;;;;27.15;5.35;;;;;;;6.62;58.60;101505.56;10420928;28;20084;-66
2023/02/04 05:03:13;;;;;;;31.52;5.60;;;;;;;6.62;58.46;101502.94;10415004;28;20061;-66
2023/02/04 05:08:15;;;;;;;28.50;4.82;;;;;;;6.62;58.71;101506.41;10417874;28;20060;-66
2023/02/04 05:13:17;;;;;;;29.27;5.22;;;;;;;6.68;58.53;101502.84;10416734;28;20042;-66
2023/02/04 05:18:19;;;;;;;27.85;5.18;;;;;;;6.70;58.56;101506.25;10415117;28;20285;-66
2023/02/04 05:23:20;;;;;;;30.45;5.90;;;;;;;6.80;58.35;101510.41;10413281;28;20421;-66
2023/02/04 05:28:22;;;;;;;29.90;6.20;;;;;;;6.77;58.57;101533.88;10414984;28;20915;-66
2023/02/04 05:33:24;;;;;;;28.13;5.40;;;;;;;6.81;58.37;101535.53;10415747;28;20048;-66
2023/02/04 05:38:25;;;;;;;29.20;5.80;;;;;;;6.75;58.54;101541.72;10412934;28;20056;-66
2023/02/04 05:43:27;;;;;;;33.65;5.95;;;;;;;6.77;58.68;101552.09;10413908;28;20053;-66
2023/02/04 05:48:28;;;;;;;28.05;5.00;;;;;;;6.82;58.54;101551.09;10414987;28;20484;-66
2023/02/04 05:53:30;;;;;;;29.85;5.50;;;;;;;6.85;58.55;101560.59;10416450;28;20052;-66
2023/02/04 05:58:32;;;;;;;33.28;6.72;;;;;;;6.86;58.58;101563.16;10415193;28;20048;-65
2023/02/04 06:03:34;;;;;;;28.20;5.88;;;;;;;6.86;58.92;101560.56;10412123;28;20094;-66
2023/02/04 06:08:35;;;;;;;29.98;5.25;;;;;;;6.91;58.68;101563.06;10411281;28;20183;-66
2023/02/04 06:13:37;;;;;;;27.65;5.63;;;;;;;6.74;59.00;101572.91;10416166;28;20045;-66
2023/02/04 06:18:39;;;;;;;31.17;5.60;;;;;;;6.62;59.07;101578.34;10411762;28;20342;-66
2023/02/04 06:23:40;;;;;;;31.83;5.50;;;;;;;6.67;59.03;101592.13;10410406;28;20053;-66
2023/02/04 06:28:42;;;;;;;31.65;5.75;;;;;;;6.75;59.33;101591.13;10410773;28;20075;-66
2023/02/04 06:33:43;;;;;;;32.90;5.90;;;;;;;6.81;59.04;101600.53;10416516;28;20071;-66
2023/02/04 06:38:45;;;;;;;29.33;5.97;;;;;;;6.75;59.31;101598.91;10411580;28;20497;-66
2023/02/04 06:43:47;;;;;;;29.35;5.65;;;;;;;6.80;59.34;101604.00;10407160;28;20181;-66
2023/02/04 06:48:48;;;;;;;33.40;7.18;;;;;;;6.88;59.10;101609.94;10416465;28;20045;-66
2023/02/04 06:53:51;;;;;;;39.72;8.30;;;;;;;6.94;59.03;101620.22;10417989;28;20795;-66
2023/02/04 06:58:52;;;;;;;31.92;6.40;;;;;;;6.91;59.22;101628.97;10415374;28;20053;-66
2023/02/04 07:03:54;;;;;;;30.80;5.70;;;;;;;6.92;59.30;101629.78;10413288;28;20041;-67
2023/02/04 07:08:56;;;;;;;33.63;5.65;;;;;;;6.97;59.40;101636.66;10412014;28;20061;-66
2023/02/04 07:13:57;;;;;;;25.02;5.75;;;;;;;6.98;59.22;101651.34;10421011;28;20048;-67
2023/02/04 07:18:59;;;;;;;31.65;6.03;;;;;;;6.95;59.22;101647.97;10414022;28;20059;-65
2023/02/04 07:24:01;;;;;;;32.92;5.80;;;;;;;6.96;59.24;101647.06;10424394;28;20053;-66
2023/02/04 07:29:02;;;;;;;37.15;6.03;;;;;;;6.98;59.33;101660.91;10418367;28;20269;-66
2023/02/04 07:34:04;;;;;;;33.92;5.20;;;;;;;6.94;59.48;101659.25;10424407;28;20048;-66
2023/02/04 07:39:06;;;;;;;33.33;6.25;;;;;;;6.95;59.47;101676.56;10420566;28;20391;-66
2023/02/04 07:44:08;;;;;;;29.95;6.57;;;;;;;7.04;59.40;101679.03;10421823;28;20409;-66
2023/02/04 07:49:09;;;;;;;32.08;5.75;;;;;;;7.14;59.42;101678.81;10422999;28;20409;-66
2023/02/04 07:54:11;;;;;;;36.80;7.55;;;;;;;7.25;59.33;101686.44;10416333;28;20056;-67
2023/02/04 07:59:13;;;;;;;24.98;5.70;;;;;;;7.29;59.22;101693.28;10418171;28;20531;-66
2023/02/04 08:04:14;;;;;;;31.00;7.25;;;;;;;7.38;59.06;101693.16;10419082;28;20412;-67
2023/02/04 08:09:16;;;;;;;43.33;15.93;;;;;;;7.53;58.98;101702.41;10426960;28;20045;-67
2023/02/04 08:14:18;;;;;;;45.85;15.85;;;;;;;7.64;58.70;101693.50;10422532;28;20056;-66
2023/02/04 08:19:20;;;;;;;36.58;6.78;;;;;;;7.74;58.58;101700.22;10424588;28;20492;-66
2023/02/04 08:24:22;;;;;;;32.42;7.50;;;;;;;7.85;58.55;101702.63;10421553;28;20045;-67
2023/02/04 08:29:24;;;;;;;37.40;7.22;;;;;;;7.91;58.52;101699.88;10426331;28;20052;-67
2023/02/04 08:34:26;;;;;;;35.47;7.70;;;;;;;7.95;58.26;101694.59;10425346;28;20045;-66
2023/02/04 08:39:28;;;;;;;35.58;6.68;;;;;;;7.97;57.75;101692.81;10426449;28;20088;-66
2023/02/04 08:44:30;;;;;;;25.30;6.07;;;;;;;7.90;57.78;101713.78;10420824;28;20048;-66
2023/02/04 08:49:31;;;;;;;31.77;7.50;;;;;;;8.03;57.70;101715.28;10414997;28;20045;-67
2023/02/04 08:54:34;;;;;;;37.30;7.50;;;;;;;8.35;57.40;101718.06;10413173;28;20041;-66
2023/02/04 08:59:35;;;;;;;30.40;6.53;;;;;;;8.43;57.11;101725.69;10404099;28;20049;-66
2023/02/04 09:04:37;;;;;;;36.03;6.45;;;;;;;8.73;56.67;101722.38;10413780;28;20059;-66
2023/02/04 09:09:39;;;;;;;26.77;6.32;;;;;;;8.89;56.21;101728.09;10412434;28;20441;-66
2023/02/04 09:14:40;;;;;;;35.85;6.45;;;;;;;8.93;55.62;101732.34;10423194;28;20056;-66
2023/02/04 09:19:42;;;;;;;30.55;5.75;;;;;;;9.06;55.15;101744.19;10409514;28;20048;-66
2023/02/04 09:24:44;;;;;;;27.63;6.15;;;;;;;9.51;54.26;101738.66;10420678;28;20058;-66
2023/02/04 09:29:45;;;;;;;27.23;5.93;;;;;;;9.46;53.95;101745.75;10416616;28;20056;-66
2023/02/04 09:34:47;;;;;;;26.92;5.40;;;;;;;9.43;53.52;101755.41;10415919;28;20520;-66
2023/02/04 09:39:48;;;;;;;26.15;5.55;;;;;;;9.29;53.93;101762.75;10416176;28;20383;-66
2023/02/04 09:44:50;;;;;;;36.95;5.68;;;;;;;9.32;53.69;101766.13;10415758;28;20053;-66
2023/02/04 09:49:52;;;;;;;31.30;6.47;;;;;;;9.41;53.01;101768.53;10412848;28;20571;-67
2023/02/04 09:54:54;;;;;;;29.77;6.45;;;;;;;9.82;53.24;101772.69;10418708;28;20393;-66
2023/02/04 09:59:57;;;;;;;29.58;6.07;;;;;;;9.79;52.10;101785.81;10413999;28;20429;-66
2023/02/04 10:04:59;;;;;;;27.35;5.35;;;;;;;9.67;52.24;101787.94;10410372;28;20044;-66
2023/02/04 10:10:01;;;;;;;29.40;5.80;;;;;;;9.96;51.99;101782.75;10409295;28;20122;-66
2023/02/04 10:15:07;;;;;;;31.05;5.18;;;;;;;10.19;50.68;101788.19;10409852;28;20178;-66
2023/02/04 10:20:16;;;;;;;24.50;5.18;;;;;;;10.18;49.51;101787.31;10415611;28;20053;-64
2023/02/04 10:25:20;;;;;;;23.60;5.10;;;;;;;10.17;50.20;101792.59;10412442;28;20053;-64
2023/02/04 10:30:26;;;;;;;22.23;4.97;;;;;;;9.80;50.21;101797.13;10409847;28;20048;-64
2023/02/04 10:35:28;;;;;;;23.25;5.25;;;;;;;9.71;50.49;101794.78;10415529;28;20061;-64
2023/02/04 10:40:32;;;;;;;24.88;5.70;;;;;;;9.58;50.65;101791.59;10414787;28;20055;-64
2023/02/04 10:45:35;;;;;;;23.95;5.07;;;;;;;9.53;50.27;101791.72;10423588;28;20052;-64
2023/02/04 10:50:37;;;;;;;13.88;3.83;;;;;;;9.55;50.33;101794.28;10421137;28;20481;-65
2023/02/04 10:55:39;;;;;;;21.20;4.68;;;;;;;9.84;50.20;101783.09;10420166;28;20248;-64
2023/02/04 11:00:41;;;;;;;27.60;5.15;;;;;;;10.31;49.35;101787.84;10419393;28;20549;-64
2023/02/04 11:05:42;;;;;;;26.08;5.18;;;;;;;10.66;48.84;101785.03;10418134;28;20040;-64
2023/02/04 11:10:44;;;;;;;25.98;4.68;;;;;;;10.69;48.38;101781.44;10422245;28;20509;-64
2023/02/04 11:15:48;;;;;;;24.80;4.50;;;;;;;10.74;47.28;101790.00;10420146;28;20052;-64
2023/02/04 11:20:55;;;;;;;31.58;5.38;;;;;;;10.43;47.69;101792.69;10423603;28;20417;-64
2023/02/04 11:26:19;;;;;;;30.90;5.00;;;;;;;10.28;47.63;101794.00;10413541;28;20416;-64
2023/02/04 11:31:20;;;;;;;20.83;4.82;;;;;;;10.16;47.79;101791.75;10343346;28;20414;-64
2023/02/04 11:36:22;;;;;;;23.30;4.93;;;;;;;10.08;47.87;101801.56;10373833;28;20053;-64
2023/02/04 11:41:28;;;;;;;22.17;4.90;;;;;;;9.77;47.40;101812.91;10380890;28;20505;-64
2023/02/04 11:46:30;;;;;;;22.23;5.32;;;;;;;9.56;48.13;101794.22;10376655;28;20046;-64
2023/02/04 11:51:33;;;;;;;25.92;5.10;;;;;;;9.75;48.38;101789.41;10376414;28;20050;-64
2023/02/04 11:56:35;;;;;;;21.65;4.65;;;;;;;9.83;47.76;101786.59;10369338;28;21222;-64
2023/02/04 12:01:37;;;;;;;22.80;5.00;;;;;;;9.79;47.82;101785.81;10375022;28;20068;-64
2023/02/04 12:06:38;;;;;;;19.83;4.85;;;;;;;9.85;47.79;101790.88;10372759;28;20189;-64
2023/02/04 12:11:54;;;;;;;22.75;4.60;;;;;;;10.08;46.98;101791.09;10378252;28;20041;-64
2023/02/04 12:16:56;;;;;;;22.40;4.55;;;;;;;10.08;47.46;101788.50;10375437;28;20482;-64
2023/02/04 12:21:58;;;;;;;21.10;4.50;;;;;;;10.30;46.03;101800.03;10387338;28;20144;-64
2023/02/04 12:26:59;;;;;;;18.83;4.32;;;;;;;10.59;45.83;101796.56;10381750;28;20853;-64
2023/02/04 12:32:01;;;;;;;18.10;3.92;;;;;;;10.66;45.64;101798.09;10376917;28;20049;-65
2023/02/04 12:37:03;;;;;;;19.02;4.53;;;;;;;10.62;45.26;101801.72;10375313;28;20045;-63
2023/02/04 12:42:04;;;;;;;20.90;4.40;;;;;;;10.79;44.92;101799.44;10377628;28;20057;-64
2023/02/04 12:47:06;;;;;;;14.38;3.90;;;;;;;11.01;44.42;101799.63;10369962;28;20701;-63
2023/02/04 12:52:08;;;;;;;19.90;4.38;;;;;;;11.20;42.77;101792.91;10369210;28;20049;-64
2023/02/04 12:57:10;;;;;;;15.23;3.40;;;;;;;10.96;43.01;101791.91;10370377;28;20053;-64
2023/02/04 13:02:12;;;;;;;18.02;3.67;;;;;;;11.16;42.89;101789.53;10373082;28;20136;-63
2023/02/04 13:07:13;;;;;;;14.90;3.92;;;;;;;11.02;42.11;101789.09;10374195;28;20795;-64
2023/02/04 13:12:15;;;;;;;16.88;4.07;;;;;;;10.74;42.32;101779.53;10378176;28;20073;-64
2023/02/04 13:17:17;;;;;;;19.00;4.15;;;;;;;10.30;43.20;101780.88;10386091;28;20529;-64
2023/02/04 13:22:18;;;;;;;19.58;4.28;;;;;;;10.01;43.46;101773.03;10376630;28;20412;-64
2023/02/04 13:27:20;;;;;;;19.48;4.50;;;;;;;9.80;43.98;101781.44;10378270;28;20048;-63
2023/02/04 13:32:22;;;;;;;20.20;3.72;;;;;;;9.97;44.41;101776.63;10378167;28;20064;-64
2023/02/04 13:37:24;;;;;;;15.75;3.88;;;;;;;10.08;44.56;101778.03;10375951;28;20042;-63
2023/02/04 13:42:26;;;;;;;21.48;4.18;;;;;;;10.20;44.06;101774.19;10378504;28;20421;-64
2023/02/04 13:47:27;;;;;;;21.88;3.75;;;;;;;10.14;44.02;101785.69;10376946;28;20053;-64
2023/02/04 13:52:29;;;;;;;19.98;3.85;;;;;;;10.10;44.38;101784.06;10376816;28;20156;-64
2023/02/04 13:57:31;;;;;;;15.23;3.45;;;;;;;10.20;43.63;101790.75;10375009;28;20049;-63
2023/02/04 14:02:33;;;;;;;15.75;3.72;;;;;;;10.54;43.07;101782.78;10375326;28;20061;-64
2023/02/04 14:07:35;;;;;;;18.02;3.67;;;;;;;10.65;43.26;101791.16;10372030;28;20049;-64
2023/02/04 14:12:36;;;;;;;19.42;4.20;;;;;;;10.62;42.49;101787.78;10376251;28;20045;-63
2023/02/04 14:17:38;;;;;;;19.42;3.75;;;;;;;10.52;41.80;101782.81;10374949;28;20516;-64
2023/02/04 14:22:39;;;;;;;17.13;3.45;;;;;;;10.44;42.01;101786.56;10372070;28;20053;-64
2023/02/04 14:27:41;;;;;;;16.95;3.65;;;;;;;10.38;42.56;101791.97;10373378;28;20142;-64
2023/02/04 14:32:43;;;;;;;17.98;3.78;;;;;;;10.32;43.11;101786.91;10374672;28;20106;-64
2023/02/04 14:37:45;;;;;;;16.63;4.05;;;;;;;10.22;43.28;101777.63;10370330;28;20048;-63
2023/02/04 14:42:46;;;;;;;16.73;3.42;;;;;;;10.17;43.71;101776.91;10372050;28;20041;-63
2023/02/04 14:47:50;;;;;;;19.50;3.88;;;;;;;10.20;43.30;101782.03;10372119;28;20049;-63
2023/02/04 14:52:52;;;;;;;19.33;3.60;;;;;;;10.29;42.24;101797.47;10373242;28;20049;-63
2023/02/04 14:57:54;;;;;;;15.27;3.60;;;;;;;10.31;42.75;101787.84;10369446;28;20049;-63
2023/02/04 15:02:56;;;;;;;12.90;3.20;;;;;;;10.36;42.44;101784.16;10368690;28;20068;-63
2023/02/04 15:07:57;;;;;;;20.08;3.60;;;;;;;10.61;42.53;101786.03;10365190;28;20045;-64
2023/02/04 15:12:59;;;;;;;16.55;3.60;;;;;;;10.76;42.00;101785.59;10372538;28;20052;-64
2023/02/04 15:18:01;;;;;;;15.77;4.30;;;;;;;10.80;41.44;101795.06;10374686;28;20300;-64
2023/02/04 15:23:02;;;;;;;16.30;4.43;;;;;;;10.73;41.28;101799.63;10369793;28;20088;-64
2023/02/04 15:28:04;;;;;;;17.77;3.80;;;;;;;10.55;41.99;101801.94;10370972;28;20451;-64
2023/02/04 15:33:06;;;;;;;16.65;3.58;;;;;;;10.19;42.28;101806.50;10379427;28;20128;-64
2023/02/04 15:38:09;;;;;;;18.63;4.00;;;;;;;9.93;42.87;101814.22;10374382;28;20051;-64
2023/02/04 15:43:11;;;;;;;21.65;4.50;;;;;;;9.77;43.96;101812.91;10381339;28;20484;-64
2023/02/04 15:48:12;;;;;;;19.23;4.53;;;;;;;9.63;44.71;101821.91;10377624;28;20045;-64
2023/02/04 15:53:14;;;;;;;22.58;4.35;;;;;;;9.72;45.06;101825.22;10378816;28;20042;-64
2023/02/04 15:58:15;;;;;;;17.98;4.40;;;;;;;9.78;44.61;101827.66;10372466;28;20046;-64
2023/02/04 16:03:17;;;;;;;18.15;3.92;;;;;;;9.69;44.03;101834.00;10378830;28;20059;-64
2023/02/04 16:08:19;;;;;;;16.25;4.22;;;;;;;9.48;43.54;101826.69;10376218;28;20048;-64
2023/02/04 16:13:20;;;;;;;19.73;4.40;;;;;;;9.21;44.71;101830.84;10373242;28;20509;-64
2023/02/04 16:18:24;;;;;;;15.07;4.13;;;;;;;8.92;45.39;101838.47;10373779;28;20049;-64
2023/02/04 16:23:26;;;;;;;15.98;4.00;;;;;;;8.75;46.35;101853.66;10377213;28;20055;-64
2023/02/04 16:28:27;;;;;;;17.85;4.60;;;;;;;8.60;46.56;101864.41;10370301;28;20667;-64
2023/02/04 16:33:29;;;;;;;16.77;4.53;;;;;;;8.50;47.17;101862.88;10373203;28;20045;-64
2023/02/04 16:38:31;;;;;;;16.70;4.03;;;;;;;8.42;47.78;101864.78;10376277;28;20052;-64
2023/02/04 16:43:33;;;;;;;18.38;4.30;;;;;;;8.32;48.34;101855.44;10371739;28;20403;-64
2023/02/04 16:48:35;;;;;;;16.08;4.68;;;;;;;8.18;48.72;101860.91;10372383;28;20045;-64
2023/02/04 16:53:36;;;;;;;12.05;3.95;;;;;;;8.06;49.62;101873.31;10377742;28;20719;-64
2023/02/04 16:58:38;;;;;;;17.80;3.90;;;;;;;7.94;49.59;101877.84;10374145;28;20052;-65
2023/02/04 17:03:41;;;;;;;13.88;3.90;;;;;;;7.88;49.62;101880.56;10378042;28;20068;-65
2023/02/04 17:08:42;;;;;;;15.80;4.82;;;;;;;7.76;49.79;101882.50;10376279;28;20072;-65
2023/02/04 17:13:44;;;;;;;19.40;4.88;;;;;;;7.62;50.45;101887.97;10376694;28;20304;-65
2023/02/04 17:18:46;;;;;;;17.95;4.72;;;;;;;7.53;51.07;101890.69;10370445;28;20052;-65
2023/02/04 17:23:49;;;;;;;18.48;4.90;;;;;;;7.52;51.52;101899.41;10374386;28;20084;-66
2023/02/04 17:28:51;;;;;;;20.25;5.30;;;;;;;7.46;51.56;101896.91;10368265;28;20086;-65
2023/02/04 17:33:52;;;;;;;19.75;5.35;;;;;;;7.04;51.88;101910.56;10372341;28;20038;-66
2023/02/04 17:38:55;;;;;;;18.05;4.95;;;;;;;6.86;52.53;101921.19;10385273;28;20539;-65
2023/02/04 17:43:57;;;;;;;21.58;5.68;;;;;;;6.90;52.89;101922.88;10370729;28;20045;-66
2023/02/04 17:48:59;;;;;;;17.52;5.05;;;;;;;6.66;52.89;101926.66;10375304;28;20052;-66
2023/02/04 17:54:01;;;;;;;23.75;5.78;;;;;;;6.65;53.52;101929.28;10373995;28;20076;-66
2023/02/04 17:59:08;;;;;;;19.15;4.30;;;;;;;6.62;54.02;101930.16;10379354;28;20237;-65
2023/02/04 18:04:13;;;;;;;19.08;5.47;;;;;;;6.54;54.42;101939.78;10382274;28;20497;-65
2023/02/04 18:09:16;;;;;;;19.38;6.00;;;;;;;6.51;54.61;101938.97;10379767;28;20056;-65
2023/02/04 18:14:26;;;;;;;18.90;5.47;;;;;;;6.45;55.13;101939.03;10381346;28;20140;-65
2023/02/04 18:19:29;;;;;;;17.27;5.70;;;;;;;6.33;55.35;101940.88;10380292;28;20048;-66
2023/02/04 18:24:38;;;;;;;23.45;5.72;;;;;;;6.34;55.78;101944.34;10381787;28;20057;-66
2023/02/04 18:29:42;;;;;;;19.00;5.63;;;;;;;6.31;55.53;101950.44;10375253;28;20041;-66
2023/02/04 18:34:46;;;;;;;26.02;8.02;;;;;;;6.25;56.50;101947.91;10369734;28;20664;-66
2023/02/04 18:39:48;;;;;;;20.77;7.20;;;;;;;6.24;56.47;101948.75;10376867;28;20045;-65
2023/02/04 18:44:51;;;;;;;25.80;7.38;;;;;;;6.22;56.59;101955.72;10369122;28;20052;-66
2023/02/04 18:49:53;;;;;;;22.58;7.35;;;;;;;6.17;56.50;101954.88;10368839;28;20290;-66
2023/02/04 18:54:57;;;;;;;22.35;6.60;;;;;;;6.12;56.33;101945.41;10373045;28;20449;-65
2023/02/04 19:00:26;;;;;;;19.02;6.32;;;;;;;5.92;57.04;101955.13;10380905;28;20050;-66
2023/02/04 19:05:32;;;;;;;22.83;6.03;;;;;;;5.87;57.04;101949.97;10381676;28;20057;-65
2023/02/04 19:10:39;;;;;;;17.13;5.45;;;;;;;5.73;57.95;101940.56;10390040;28;20049;-65
2023/02/04 19:15:48;;;;;;;21.77;6.18;;;;;;;5.46;57.95;101937.31;10369448;28;20049;-65
2023/02/04 19:20:51;;;;;;;21.42;6.68;;;;;;;5.24;58.72;101938.31;10348550;28;20061;-66
2023/02/04 19:25:53;;;;;;;20.23;6.40;;;;;;;5.10;59.04;101947.03;10378649;28;20049;-65
2023/02/04 19:31:04;;;;;;;21.67;6.70;;;;;;;5.08;59.41;101944.47;10375699;28;20046;-66
2023/02/04 19:36:32;;;;;;;24.10;6.78;;;;;;;4.90;59.26;101949.75;10380451;28;20042;-65
2023/02/04 19:41:46;;;;;;;20.38;7.47;;;;;;;4.74;60.50;101953.25;10377096;28;20059;-65
2023/02/04 19:46:48;;;;;;;25.10;8.30;;;;;;;4.83;60.11;101971.38;10380085;28;20052;-66
2023/02/04 19:51:55;;;;;;;28.30;8.35;;;;;;;4.91;60.01;101974.78;10376932;28;20052;-65
2023/02/04 19:56:57;;;;;;;24.23;8.15;;;;;;;4.80;60.14;101978.31;10373720;28;20402;-65
2023/02/04 20:02:34;;;;;;;22.70;8.95;;;;;;;4.66;60.78;101976.59;10379960;28;20072;-65
2023/02/04 20:07:36;;;;;;;25.70;7.80;;;;;;;4.63;60.18;101986.13;10378146;28;20049;-65
2023/02/04 20:12:40;;;;;;;18.70;7.40;;;;;;;4.41;60.60;101980.13;10379563;28;20046;-65
2023/02/04 20:17:48;;;;;;;21.90;7.28;;;;;;;4.41;61.33;102002.59;10380454;28;20209;-65
2023/02/04 20:22:55;;;;;;;21.38;6.82;;;;;;;4.38;60.93;102000.88;10378877;28;20088;-65
2023/02/04 20:28:01;;;;;;;24.80;6.80;;;;;;;4.22;61.23;102001.75;10379590;28;20456;-65
2023/02/04 20:33:25;;;;;;;23.15;7.22;;;;;;;4.03;61.94;101994.84;10377713;28;20045;-65
2023/02/04 20:38:27;;;;;;;21.35;6.82;;;;;;;3.99;61.73;102005.19;10382223;28;20045;-66
2023/02/04 20:43:33;;;;;;;27.38;8.27;;;;;;;3.93;62.05;102006.06;10377240;28;20057;-65
2023/02/04 20:48:39;;;;;;;21.08;7.50;;;;;;;3.87;62.16;102003.47;10395000;28;20053;-65
2023/02/04 20:53:51;;;;;;;24.33;7.43;;;;;;;3.72;62.25;102013.81;10380646;28;20488;-65
2023/02/04 20:59:15;;;;;;;26.23;7.32;;;;;;;3.63;62.08;102006.00;10379930;28;20068;-65
2023/02/04 21:04:41;;;;;;;22.58;7.35;;;;;;;3.41;62.66;102012.00;10378466;28;20056;-65
2023/02/04 21:09:43;;;;;;;20.05;7.47;;;;;;;3.33;62.48;102001.66;10373279;28;20052;-65
2023/02/04 21:14:46;;;;;;;28.27;7.57;;;;;;;3.23;62.59;102004.22;10385034;28;20064;-65
2023/02/04 21:19:48;;;;;;;20.08;7.88;;;;;;;3.16;62.92;102002.44;10375340;28;20046;-65
2023/02/04 21:24:49;;;;;;;22.75;7.78;;;;;;;3.17;62.93;102002.47;10376720;28;20056;-65
2023/02/04 21:29:51;;;;;;;28.27;8.82;;;;;;;2.97;63.20;102009.25;10373218;28;20212;-65
2023/02/04 21:34:55;;;;;;;29.95;9.35;;;;;;;2.89;63.43;102009.25;10374845;28;20151;-64
2023/02/04 21:39:58;;;;;;;23.73;9.32;;;;;;;2.80;63.31;102009.22;10368062;28;20045;-65
2023/02/04 21:45:00;;;;;;;23.38;8.82;;;;;;;2.72;63.48;102010.91;10372271;28;20049;-65
2023/02/04 21:50:02;;;;;;;27.95;8.93;;;;;;;2.69;63.60;102008.28;10375028;28;20593;-65
2023/02/04 21:55:04;;;;;;;27.55;8.45;;;;;;;2.68;63.62;102018.63;10371134;28;20068;-65
2023/02/04 22:00:08;;;;;;;22.05;8.32;;;;;;;2.62;63.87;102022.00;10374653;28;20045;-65
2023/02/04 22:05:10;;;;;;;26.98;8.63;;;;;;;2.62;63.72;102021.16;10372082;28;20079;-65
2023/02/04 22:10:16;;;;;;;19.95;8.07;;;;;;;2.58;64.09;102019.41;10372278;28;20061;-65
2023/02/04 22:15:22;;;;;;;26.52;8.63;;;;;;;2.57;64.02;102005.63;10373901;28;20052;-65
2023/02/04 22:20:24;;;;;;;24.10;8.85;;;;;;;2.46;63.87;102009.00;10373766;28;20533;-64
2023/02/04 22:25:26;;;;;;;21.95;7.50;;;;;;;2.35;64.14;102024.44;10371565;28;20037;-65
2023/02/04 22:30:28;;;;;;;24.63;8.80;;;;;;;2.35;64.29;102011.53;10368438;28;20049;-64
2023/02/04 22:35:33;;;;;;;28.20;11.88;;;;;;;2.30;64.20;102014.94;10372823;28;20088;-64
2023/02/04 22:40:35;;;;;;;30.88;10.20;;;;;;;2.26;64.21;102020.91;10374637;28;20489;-64
2023/02/04 22:45:37;;;;;;;27.83;8.52;;;;;;;2.21;64.10;102010.56;10383775;28;20457;-64
2023/02/04 22:50:39;;;;;;;22.42;9.30;;;;;;;2.03;64.65;102013.00;10377950;28;20409;-65
2023/02/04 22:55:40;;;;;;;29.73;9.50;;;;;;;1.96;64.48;102018.94;10385078;28;20049;-64
2023/02/04 23:00:43;;;;;;;21.50;7.85;;;;;;;2.09;64.66;102015.63;10380142;28;20061;-64
2023/02/04 23:05:46;;;;;;;27.40;8.18;;;;;;;2.31;64.32;102024.38;10380890;28;20046;-64
2023/02/04 23:10:48;;;;;;;21.45;7.53;;;;;;;2.46;64.15;102021.94;10380484;28;20414;-65